Northfield Village, Ohio
Current Conditions -  °F | °C
As of 8:53 PM on Sunday 25 Jan 2015 (Local Time) from KBKL Reporting Station
Light Snow Light Snow  
Wind Chill:   Ceiling: 3800
Heat Index: 21°   Visibility: 9mi
Dew Point: 14°   Wind: 15mph
Humidity: 74%   Direction: 40°NE
Pressure: 29.91"   Gusts: NA
Location:  41.3128°N, 81.5476°W
Report Text: KBKL 260153Z 04013KT 9SM -SN OVC038 M06/M10 A2991 RMK AO2 SLP135 P0000 T10611100
Loading
Personal Weather Stations






























Interactive Weather Map New forecast layout! Learn more

10-Day Weather Forecast

Advertisements
Track Severe Weather on mobile